Time;durP1;ratioP1;P1;durP2;ratioP2;P2;SDS_P1;SDS_P2;PMS_P1;PMS_P2;Temp;Humidity;BMP_temperature;BMP_pressure;BME280_temperature;BME280_humidity;BME280_pressure;Samples;Min_cycle;Max_cycle;Signal;HPM_P1;HPM_P2
2023/04/26 00:01:35;;;;;;;22.15;12.80;;;;;;;0.52;100.00;101833.94;5114692;28;20537;-58
2023/04/26 00:04:01;;;;;;;19.15;12.10;;;;;;;0.48;100.00;101840.41;5113906;28;20044;-58
2023/04/26 00:06:27;;;;;;;22.40;13.18;;;;;;;0.45;100.00;101835.97;5114516;28;20069;-58
2023/04/26 00:08:52;;;;;;;23.23;12.82;;;;;;;0.45;100.00;101833.44;5114572;28;20023;-57
2023/04/26 00:11:17;;;;;;;24.42;12.68;;;;;;;0.51;100.00;101838.13;5113280;28;20491;-58
2023/04/26 00:13:42;;;;;;;23.73;13.45;;;;;;;0.45;100.00;101830.00;5114717;28;20364;-58
2023/04/26 00:16:08;;;;;;;25.23;14.43;;;;;;;0.47;100.00;101833.56;5113982;28;20038;-58
2023/04/26 00:18:33;;;;;;;23.75;14.65;;;;;;;0.54;100.00;101838.38;5113930;28;20035;-58
2023/04/26 00:20:58;;;;;;;26.45;14.68;;;;;;;0.51;100.00;101838.13;5114357;28;20031;-58
2023/04/26 00:23:24;;;;;;;22.27;12.57;;;;;;;0.43;100.00;101831.53;5113474;28;20476;-58
2023/04/26 00:25:49;;;;;;;21.05;13.32;;;;;;;0.45;100.00;101837.59;5114103;28;20352;-58
2023/04/26 00:28:15;;;;;;;27.85;14.70;;;;;;;0.44;100.00;101838.34;5114603;28;20383;-58
2023/04/26 00:30:46;;;;;;;23.75;13.57;;;;;;;0.40;100.00;101836.31;5113390;28;20120;-58
2023/04/26 00:33:11;;;;;;;22.23;13.88;;;;;;;0.40;100.00;101833.78;5114240;28;20027;-58
2023/04/26 00:35:37;;;;;;;25.55;14.80;;;;;;;0.39;100.00;101834.53;5113819;28;20471;-58
2023/04/26 00:38:02;;;;;;;26.80;13.95;;;;;;;0.33;100.00;101832.34;5113519;28;20492;-58
2023/04/26 00:40:28;;;;;;;24.02;13.85;;;;;;;0.30;100.00;101832.09;5113684;28;20496;-58
2023/04/26 00:42:57;;;;;;;24.80;14.27;;;;;;;0.35;100.00;101832.47;5114181;28;20030;-58
2023/04/26 00:45:22;;;;;;;26.83;14.20;;;;;;;0.27;100.00;101836.88;5113027;28;20027;-58
2023/04/26 00:47:48;;;;;;;21.08;13.45;;;;;;;0.24;100.00;101834.97;5113959;28;20019;-58
2023/04/26 00:50:13;;;;;;;25.23;13.90;;;;;;;0.18;100.00;101834.44;5114020;28;20019;-58
2023/04/26 00:52:39;;;;;;;23.73;14.20;;;;;;;0.12;100.00;101831.38;5112761;28;20534;-58
2023/04/26 00:55:04;;;;;;;21.40;12.73;;;;;;;0.02;100.00;101833.88;5113948;28;20023;-58
2023/04/26 00:57:30;;;;;;;22.35;13.13;;;;;;;0.01;100.00;101834.63;5113617;28;20027;-58
2023/04/26 00:59:55;;;;;;;21.27;13.75;;;;;;;0.02;100.00;101836.41;5112838;28;20028;-58
2023/04/26 01:02:21;;;;;;;24.17;13.85;;;;;;;-0.01;100.00;101837.03;5113449;28;20032;-57
2023/04/26 01:04:47;;;;;;;24.70;14.00;;;;;;;0.03;100.00;101834.00;5113542;28;20042;-57
2023/04/26 01:07:12;;;;;;;22.17;13.95;;;;;;;-0.05;100.00;101835.88;5112834;28;20019;-58
2023/04/26 01:09:39;;;;;;;22.27;13.65;;;;;;;-0.16;100.00;101831.47;5113447;28;20023;-58
2023/04/26 01:12:06;;;;;;;19.80;13.05;;;;;;;-0.23;100.00;101829.19;5113734;28;20015;-58
2023/04/26 01:14:32;;;;;;;24.75;13.63;;;;;;;-0.23;100.00;101824.09;5112684;28;20019;-58
2023/04/26 01:16:58;;;;;;;24.45;13.23;;;;;;;-0.24;100.00;101837.53;5113485;28;20475;-57
2023/04/26 01:19:24;;;;;;;18.58;13.55;;;;;;;-0.29;100.00;101832.03;5113110;28;20026;-58
2023/04/26 01:21:50;;;;;;;18.77;12.88;;;;;;;-0.27;100.00;101834.69;5112786;28;20039;-58
2023/04/26 01:24:15;;;;;;;20.25;13.07;;;;;;;-0.36;100.00;101828.06;5113455;28;20066;-58
2023/04/26 01:26:47;;;;;;;21.40;13.13;;;;;;;-0.41;100.00;101833.50;5112974;28;20076;-58
2023/04/26 01:29:16;;;;;;;25.13;13.15;;;;;;;-0.52;100.00;101840.09;5113254;28;20032;-58
2023/04/26 01:31:42;;;;;;;20.63;14.05;;;;;;;-0.47;100.00;101838.88;5113251;28;20031;-58
2023/04/26 01:34:07;;;;;;;23.88;14.10;;;;;;;-0.58;100.00;101844.59;5112725;28;20027;-57
2023/04/26 01:36:33;;;;;;;23.60;14.05;;;;;;;-0.51;100.00;101841.88;5112587;28;20497;-58
2023/04/26 01:38:58;;;;;;;24.17;14.82;;;;;;;-0.50;100.00;101836.09;5113460;28;20032;-58
2023/04/26 01:41:24;;;;;;;21.83;14.00;;;;;;;-0.45;100.00;101832.31;5112524;28;20470;-58
2023/04/26 01:43:49;;;;;;;23.55;14.73;;;;;;;-0.43;100.00;101835.84;5113048;28;20032;-58
2023/04/26 01:46:14;;;;;;;25.05;13.85;;;;;;;-0.48;100.00;101834.56;5113216;28;20485;-58
2023/04/26 01:48:40;;;;;;;28.02;14.70;;;;;;;-0.48;100.00;101837.09;5111987;28;20035;-58
2023/04/26 01:51:05;;;;;;;26.95;15.00;;;;;;;-0.50;100.00;101841.16;5112944;28;20056;-58
2023/04/26 01:53:31;;;;;;;30.58;14.57;;;;;;;-0.50;100.00;101836.97;5112740;28;20360;-58
2023/04/26 01:55:59;;;;;;;25.45;14.85;;;;;;;-0.54;100.00;101839.97;5112408;28;20038;-58
2023/04/26 01:58:25;;;;;;;25.48;14.93;;;;;;;-0.46;100.00;101830.53;5112831;28;20031;-57
2023/04/26 02:00:50;;;;;;;27.25;15.82;;;;;;;-0.59;100.00;101843.72;5114405;28;20383;-57
2023/04/26 02:03:15;;;;;;;22.65;14.73;;;;;;;-0.53;100.00;101840.84;5115984;28;20065;-58
2023/04/26 02:05:40;;;;;;;21.95;13.32;;;;;;;-0.70;100.00;101835.16;5116902;28;20058;-58
2023/04/26 02:08:06;;;;;;;20.88;14.07;;;;;;;-0.59;100.00;101841.19;5117180;28;20490;-58
2023/04/26 02:10:31;;;;;;;22.27;15.23;;;;;;;-0.58;100.00;101849.66;5115972;28;20078;-58
2023/04/26 02:12:56;;;;;;;27.08;14.43;;;;;;;-0.61;100.00;101844.34;5117053;28;20467;-58
2023/04/26 02:15:22;;;;;;;25.08;15.07;;;;;;;-0.65;100.00;101842.28;5116602;28;20492;-58
2023/04/26 02:17:48;;;;;;;23.90;14.63;;;;;;;-0.67;100.00;101835.44;5116065;28;20019;-58
2023/04/26 02:20:13;;;;;;;29.25;15.75;;;;;;;-0.68;100.00;101837.84;5116710;28;20051;-58
2023/04/26 02:22:39;;;;;;;27.95;16.33;;;;;;;-0.62;100.00;101835.88;5116628;28;20428;-58
2023/04/26 02:25:05;;;;;;;27.30;17.20;;;;;;;-0.55;100.00;101834.78;5116045;28;20069;-58
2023/04/26 02:27:31;;;;;;;36.33;17.50;;;;;;;-0.56;100.00;101838.06;5116515;28;20065;-58
2023/04/26 02:29:56;;;;;;;25.42;14.88;;;;;;;-0.80;100.00;101836.72;5116132;28;20030;-58
2023/04/26 02:32:22;;;;;;;20.02;13.48;;;;;;;-0.78;100.00;101836.09;5116047;28;20035;-58
2023/04/26 02:34:47;;;;;;;20.30;14.35;;;;;;;-0.79;100.00;101834.31;5116395;28;20463;-57
2023/04/26 02:37:12;;;;;;;27.55;15.60;;;;;;;-0.90;100.00;101829.94;5115906;28;20043;-58
2023/04/26 02:39:38;;;;;;;29.00;15.52;;;;;;;-0.85;100.00;101828.72;5116083;28;20467;-58
2023/04/26 02:42:03;;;;;;;25.85;15.23;;;;;;;-0.87;100.00;101831.09;5116442;28;20028;-58
2023/04/26 02:44:32;;;;;;;26.48;16.05;;;;;;;-0.92;100.00;101827.25;5115563;28;20019;-58
2023/04/26 02:46:57;;;;;;;26.48;15.10;;;;;;;-0.98;100.00;101825.78;5116040;28;20106;-58
2023/04/26 02:49:22;;;;;;;24.27;15.13;;;;;;;-0.98;100.00;101826.69;5115822;28;20062;-57
2023/04/26 02:51:48;;;;;;;27.15;15.60;;;;;;;-0.97;100.00;101828.47;5115556;28;20462;-58
2023/04/26 02:54:13;;;;;;;25.90;17.02;;;;;;;-0.94;100.00;101823.69;5116259;28;20039;-57
2023/04/26 02:56:38;;;;;;;25.95;15.80;;;;;;;-0.95;100.00;101826.09;5115972;28;20023;-57
2023/04/26 02:59:03;;;;;;;28.88;15.90;;;;;;;-0.98;100.00;101826.69;5115351;28;20023;-58
2023/04/26 03:01:29;;;;;;;28.33;17.10;;;;;;;-0.89;100.00;101819.03;5115716;28;20027;-57
2023/04/26 03:03:54;;;;;;;26.00;16.88;;;;;;;-0.89;100.00;101813.97;5115823;28;20052;-58
2023/04/26 03:06:19;;;;;;;29.33;18.45;;;;;;;-0.83;100.00;101812.00;5115045;28;20073;-57
2023/04/26 03:08:45;;;;;;;27.73;16.80;;;;;;;-0.84;100.00;101820.34;5116030;28;20546;-58
2023/04/26 03:11:10;;;;;;;26.05;16.63;;;;;;;-0.84;100.00;101811.13;5115897;28;20439;-58
2023/04/26 03:13:36;;;;;;;29.52;16.23;;;;;;;-0.87;100.00;101810.84;5113512;28;20027;-57
2023/04/26 03:16:01;;;;;;;28.10;17.05;;;;;;;-0.87;100.00;101815.91;5115733;28;20101;-57
2023/04/26 03:18:27;;;;;;;35.38;16.90;;;;;;;-0.89;100.00;101812.34;5115397;28;20020;-57
2023/04/26 03:20:52;;;;;;;27.50;16.50;;;;;;;-0.96;100.00;101809.13;5114745;28;20429;-57
2023/04/26 03:23:18;;;;;;;29.30;17.30;;;;;;;-0.91;100.00;101811.31;5115457;28;20062;-58
2023/04/26 03:25:44;;;;;;;34.00;18.38;;;;;;;-0.90;100.00;101810.56;5115644;28;20090;-58
2023/04/26 03:28:09;;;;;;;27.02;15.95;;;;;;;-1.05;100.00;101812.56;5114824;28;20066;-57
2023/04/26 03:30:35;;;;;;;22.48;15.13;;;;;;;-1.10;100.00;101813.78;5115094;28;20040;-58
2023/04/26 03:33:00;;;;;;;22.20;13.50;;;;;;;-1.16;100.00;101805.66;5115376;28;20062;-58
2023/04/26 03:35:25;;;;;;;23.52;15.57;;;;;;;-1.06;100.00;101808.28;5114250;28;20024;-57
2023/04/26 03:37:50;;;;;;;25.48;16.15;;;;;;;-1.10;100.00;101808.72;5115294;28;20030;-57
2023/04/26 03:40:16;;;;;;;31.83;15.85;;;;;;;-1.15;100.00;101807.41;5114595;28;20031;-58
2023/04/26 03:42:41;;;;;;;26.33;16.52;;;;;;;-1.19;100.00;101805.34;5115255;28;20103;-58
2023/04/26 03:45:07;;;;;;;25.85;14.70;;;;;;;-1.30;100.00;101806.00;5115286;28;20024;-57
2023/04/26 03:47:32;;;;;;;21.50;14.55;;;;;;;-1.37;100.00;101804.53;5114234;28;20501;-58
2023/04/26 03:49:58;;;;;;;26.92;14.90;;;;;;;-1.41;100.00;101807.53;5114690;28;20449;-58
2023/04/26 03:52:23;;;;;;;24.08;14.52;;;;;;;-1.39;100.00;101801.88;5114984;28;20034;-57
2023/04/26 03:54:48;;;;;;;27.40;14.90;;;;;;;-1.42;100.00;101805.75;5114313;28;20439;-58
2023/04/26 03:57:14;;;;;;;35.97;17.15;;;;;;;-1.39;100.00;101806.06;5115014;28;20023;-58
2023/04/26 03:59:39;;;;;;;31.65;17.45;;;;;;;-1.37;100.00;101805.44;5114436;28;20020;-58
2023/04/26 04:02:05;;;;;;;29.33;17.55;;;;;;;-1.36;100.00;101814.78;5114009;28;20032;-59
2023/04/26 04:04:30;;;;;;;38.63;19.25;;;;;;;-1.37;100.00;101815.56;5114316;28;20161;-58
2023/04/26 04:06:55;;;;;;;30.02;17.38;;;;;;;-1.42;100.00;101806.66;5114897;28;20058;-59
2023/04/26 04:09:21;;;;;;;25.27;15.35;;;;;;;-1.46;100.00;101807.09;5113541;28;20027;-58
2023/04/26 04:11:46;;;;;;;26.52;16.35;;;;;;;-1.37;100.00;101813.03;5114616;28;20027;-58
2023/04/26 04:14:11;;;;;;;31.98;18.25;;;;;;;-1.43;100.00;101814.09;5114513;28;20028;-58
2023/04/26 04:16:37;;;;;;;30.30;18.00;;;;;;;-1.39;100.00;101806.94;5113505;28;20081;-58
2023/04/26 04:19:02;;;;;;;31.05;17.98;;;;;;;-1.39;100.00;101806.94;5114356;28;20094;-57
2023/04/26 04:21:28;;;;;;;28.63;16.15;;;;;;;-1.43;100.00;101809.03;5114333;28;20054;-57
2023/04/26 04:23:53;;;;;;;34.72;17.75;;;;;;;-1.42;100.00;101815.88;5113413;28;20052;-57
2023/04/26 04:26:19;;;;;;;31.88;18.73;;;;;;;-1.48;100.00;101808.63;5114239;28;20104;-57
2023/04/26 04:28:45;;;;;;;26.65;16.65;;;;;;;-1.50;100.00;101810.09;5114344;28;20090;-58
2023/04/26 04:31:11;;;;;;;27.65;16.73;;;;;;;-1.49;100.00;101809.34;5113729;28;20020;-58
2023/04/26 04:33:37;;;;;;;25.65;16.05;;;;;;;-1.58;100.00;101805.97;5113810;28;20019;-57
2023/04/26 04:36:03;;;;;;;30.52;17.42;;;;;;;-1.58;100.00;101816.09;5114346;28;20102;-57
2023/04/26 04:38:28;;;;;;;29.65;19.02;;;;;;;-1.49;100.00;101817.81;5113050;28;20027;-57
2023/04/26 04:40:54;;;;;;;28.33;17.48;;;;;;;-1.48;100.00;101816.19;5114172;28;20489;-57
2023/04/26 04:43:20;;;;;;;31.65;18.08;;;;;;;-1.43;100.00;101812.47;5113774;28;20028;-58
2023/04/26 04:45:46;;;;;;;26.27;17.98;;;;;;;-1.41;100.00;101817.66;5113166;28;20027;-58
2023/04/26 04:48:12;;;;;;;33.15;20.15;;;;;;;-1.34;100.00;101820.03;5113846;28;20023;-57
2023/04/26 04:50:43;;;;;;;28.95;19.05;;;;;;;-1.24;100.00;101821.75;5113102;28;20026;-58
2023/04/26 04:53:09;;;;;;;33.00;19.73;;;;;;;-1.22;100.00;101825.31;5113750;28;20104;-57
2023/04/26 04:55:35;;;;;;;33.85;21.77;;;;;;;-1.09;100.00;101827.34;5113598;28;20054;-58
2023/04/26 04:58:02;;;;;;;34.33;20.95;;;;;;;-1.07;100.00;101839.38;5112997;28;20494;-58
2023/04/26 05:00:28;;;;;;;33.00;20.70;;;;;;;-1.00;100.00;101834.13;5113413;28;20020;-58
2023/04/26 05:02:54;;;;;;;28.52;19.42;;;;;;;-0.96;100.00;101840.38;5113652;28;20012;-57
2023/04/26 05:05:19;;;;;;;41.78;23.58;;;;;;;-0.74;100.00;101840.69;5112493;28;20070;-58
2023/04/26 05:07:44;;;;;;;35.25;22.17;;;;;;;-0.70;100.00;101839.31;5114049;28;20020;-57
2023/04/26 05:10:10;;;;;;;33.00;20.98;;;;;;;-0.69;100.00;101836.94;5113451;28;20023;-57
2023/04/26 05:12:36;;;;;;;31.42;19.67;;;;;;;-0.61;100.00;101839.28;5112543;28;20034;-57
2023/04/26 05:15:01;;;;;;;34.13;21.98;;;;;;;-0.52;100.00;101840.09;5113694;28;20020;-57
2023/04/26 05:17:26;;;;;;;50.15;27.55;;;;;;;-0.35;100.00;101832.38;5113073;28;20039;-57
2023/04/26 05:19:52;;;;;;;50.05;29.00;;;;;;;-0.27;100.00;101838.13;5113040;28;20039;-57
2023/04/26 05:22:17;;;;;;;49.28;30.20;;;;;;;-0.09;100.00;101843.94;5113170;28;20023;-57
2023/04/26 05:24:45;;;;;;;52.28;29.48;;;;;;;0.07;100.00;101850.38;5113540;28;20027;-58
2023/04/26 05:27:11;;;;;;;41.90;25.80;;;;;;;0.16;100.00;101839.38;5112814;28;20439;-57
2023/04/26 05:29:36;;;;;;;45.33;28.92;;;;;;;0.26;100.00;101840.19;5113065;28;20099;-58
2023/04/26 05:32:01;;;;;;;43.28;26.88;;;;;;;0.40;100.00;101841.38;5113380;28;20096;-57
2023/04/26 05:34:27;;;;;;;44.40;26.60;;;;;;;0.48;100.00;101836.22;5112340;28;20368;-57
2023/04/26 05:36:52;;;;;;;45.30;26.70;;;;;;;0.55;100.00;101839.28;5112704;28;20494;-58
2023/04/26 05:39:19;;;;;;;42.83;26.95;;;;;;;0.61;100.00;101838.16;5112786;28;20031;-57
2023/04/26 05:41:44;;;;;;;43.47;25.85;;;;;;;0.68;100.00;101847.19;5112419;28;20107;-57
2023/04/26 05:44:10;;;;;;;45.28;24.58;;;;;;;0.74;100.00;101845.19;5113164;28;20439;-57
2023/04/26 05:46:35;;;;;;;44.38;24.50;;;;;;;0.84;100.00;101851.03;5112861;28;20038;-58
2023/04/26 05:49:00;;;;;;;40.92;24.20;;;;;;;0.93;100.00;101859.41;5112538;28;20535;-57
2023/04/26 05:51:26;;;;;;;44.65;23.58;;;;;;;0.94;100.00;101854.50;5112929;28;20027;-58
2023/04/26 05:53:52;;;;;;;38.55;24.60;;;;;;;0.97;100.00;101849.66;5112503;28;20019;-57
2023/04/26 05:56:17;;;;;;;40.30;23.20;;;;;;;1.00;100.00;101851.56;5112583;28;20030;-58
2023/04/26 05:58:42;;;;;;;40.65;24.10;;;;;;;1.08;100.00;101855.63;5113097;28;20034;-57
2023/04/26 06:01:07;;;;;;;43.30;24.02;;;;;;;1.17;100.00;101852.97;5112108;28;20467;-57
2023/04/26 06:03:33;;;;;;;45.15;25.25;;;;;;;1.29;100.00;101848.94;5112516;28;20046;-58
2023/04/26 06:05:58;;;;;;;48.38;25.65;;;;;;;1.42;100.00;101849.94;5112884;28;20023;-58
2023/04/26 06:08:23;;;;;;;42.63;24.60;;;;;;;1.52;100.00;101847.41;5111979;28;20039;-57
2023/04/26 06:10:49;;;;;;;40.50;24.50;;;;;;;1.70;100.00;101852.22;5112872;28;20039;-57
2023/04/26 06:13:14;;;;;;;43.67;25.20;;;;;;;1.85;100.00;101850.94;5112893;28;20020;-57
2023/04/26 06:15:40;;;;;;;36.53;22.17;;;;;;;1.96;100.00;101845.06;5111663;28;20016;-58
2023/04/26 06:18:06;;;;;;;41.40;24.77;;;;;;;2.16;100.00;101855.94;5113065;28;20046;-57
2023/04/26 06:20:31;;;;;;;40.13;23.95;;;;;;;2.26;100.00;101850.81;5112512;28;20421;-58
2023/04/26 06:22:57;;;;;;;34.78;20.75;;;;;;;2.37;100.00;101856.72;5112041;28;20028;-57
2023/04/26 06:25:22;;;;;;;34.17;21.40;;;;;;;2.52;100.00;101857.06;5112505;28;20031;-58
2023/04/26 06:27:47;;;;;;;38.58;22.25;;;;;;;2.61;100.00;101860.31;5112737;28;20027;-57
2023/04/26 06:30:13;;;;;;;36.83;22.00;;;;;;;2.70;100.00;101864.34;5111750;28;20016;-57
2023/04/26 06:32:40;;;;;;;40.17;22.02;;;;;;;2.84;100.00;101868.88;5112586;28;20036;-58
2023/04/26 06:35:06;;;;;;;41.40;22.33;;;;;;;2.95;100.00;101860.38;5112951;28;20111;-58
2023/04/26 06:37:31;;;;;;;32.85;20.77;;;;;;;3.09;100.00;101866.53;5111727;28;20110;-58
2023/04/26 06:39:56;;;;;;;37.38;21.98;;;;;;;3.26;100.00;101869.47;5112619;28;20103;-57
2023/04/26 06:42:21;;;;;;;34.80;20.58;;;;;;;3.38;100.00;101874.59;5112439;28;20498;-57
2023/04/26 06:44:47;;;;;;;40.03;20.60;;;;;;;3.57;100.00;101876.88;5111684;28;20026;-57
2023/04/26 06:47:13;;;;;;;35.47;18.75;;;;;;;3.71;100.00;101877.91;5114379;28;20413;-57
2023/04/26 06:49:38;;;;;;;33.70;19.75;;;;;;;3.82;100.00;101879.56;5116095;28;20103;-57
2023/04/26 06:52:05;;;;;;;35.95;18.80;;;;;;;3.93;100.00;101882.91;5115343;28;20118;-57
2023/04/26 06:54:31;;;;;;;33.72;18.05;;;;;;;4.00;100.00;101882.56;5115731;28;20514;-57
2023/04/26 06:56:57;;;;;;;38.53;18.90;;;;;;;4.14;100.00;101883.59;5116014;28;20126;-57
2023/04/26 06:59:22;;;;;;;33.20;18.23;;;;;;;4.22;100.00;101879.94;5114741;28;20111;-57
2023/04/26 07:01:48;;;;;;;29.45;18.48;;;;;;;4.33;100.00;101880.69;5116202;28;20058;-57
2023/04/26 07:04:14;;;;;;;32.40;19.30;;;;;;;4.41;100.00;101883.78;5114720;28;20135;-57
2023/04/26 07:06:40;;;;;;;31.83;17.35;;;;;;;4.50;100.00;101881.88;5115806;28;20034;-57
2023/04/26 07:09:05;;;;;;;28.25;15.43;;;;;;;4.62;100.00;101884.41;5115925;28;20103;-57
2023/04/26 07:11:30;;;;;;;40.83;18.52;;;;;;;4.92;100.00;101878.03;5114613;28;20039;-57
2023/04/26 07:13:56;;;;;;;27.90;15.68;;;;;;;4.95;100.00;101883.31;5115712;28;20467;-57
2023/04/26 07:16:21;;;;;;;24.42;13.40;;;;;;;4.97;100.00;101885.13;5115574;28;20027;-57
2023/04/26 07:18:47;;;;;;;28.75;14.65;;;;;;;4.95;100.00;101890.13;5114745;28;20034;-57
2023/04/26 07:21:13;;;;;;;25.25;12.77;;;;;;;4.96;100.00;101889.34;5115772;28;20097;-57
2023/04/26 07:23:38;;;;;;;26.70;12.77;;;;;;;4.99;100.00;101888.66;5115451;28;20019;-57
2023/04/26 07:26:03;;;;;;;21.10;11.75;;;;;;;5.01;100.00;101892.19;5114892;28;20103;-57
2023/04/26 07:28:32;;;;;;;21.58;11.60;;;;;;;5.10;100.00;101893.72;5115185;28;20375;-57
2023/04/26 07:31:00;;;;;;;23.15;11.43;;;;;;;5.23;100.00;101892.03;5115529;28;20032;-57
2023/04/26 07:33:25;;;;;;;19.60;10.35;;;;;;;5.40;100.00;101888.06;5114496;28;20023;-57
2023/04/26 07:35:55;;;;;;;22.55;11.30;;;;;;;5.50;100.00;101895.56;5115323;28;20081;-57
2023/04/26 07:38:21;;;;;;;20.05;11.23;;;;;;;5.75;100.00;101886.94;5114993;28;20020;-57
2023/04/26 07:40:46;;;;;;;19.73;10.43;;;;;;;5.82;98.69;101889.09;5114645;28;20498;-57
2023/04/26 07:43:12;;;;;;;22.77;10.25;;;;;;;5.99;97.88;101879.13;5115135;28;20114;-57
2023/04/26 07:45:37;;;;;;;19.45;8.48;;;;;;;6.16;94.71;101882.78;5114966;28;20471;-57
2023/04/26 07:48:03;;;;;;;15.43;6.82;;;;;;;6.22;88.52;101886.63;5114224;28;20039;-57
2023/04/26 07:50:28;;;;;;;17.83;7.25;;;;;;;6.46;89.48;101878.72;5114873;28;20020;-57
2023/04/26 07:52:53;;;;;;;15.40;7.82;;;;;;;6.50;90.26;101879.81;5115077;28;20034;-57
2023/04/26 07:55:18;;;;;;;16.35;7.68;;;;;;;6.54;88.37;101880.06;5114055;28;20520;-57
2023/04/26 07:57:44;;;;;;;15.32;6.93;;;;;;;6.68;86.15;101880.06;5114875;28;20031;-57
2023/04/26 08:00:10;;;;;;;16.92;5.78;;;;;;;6.80;84.34;101883.38;5114597;28;20429;-57
2023/04/26 08:02:36;;;;;;;18.60;6.72;;;;;;;6.94;85.58;101880.78;5113664;28;20031;-57
2023/04/26 08:05:01;;;;;;;12.93;5.30;;;;;;;7.28;83.60;101887.94;5114711;28;20047;-57
2023/04/26 08:07:26;;;;;;;14.85;5.22;;;;;;;7.37;83.84;101893.63;5113432;28;20067;-57
2023/04/26 08:09:52;;;;;;;16.50;4.72;;;;;;;7.49;82.34;101886.66;5114569;28;20467;-57
2023/04/26 08:12:18;;;;;;;16.33;6.80;;;;;;;7.34;80.23;101898.56;5114164;28;20043;-57
2023/04/26 08:14:44;;;;;;;9.70;2.90;;;;;;;7.28;73.99;101896.50;5114003;28;20672;-57
2023/04/26 08:17:09;;;;;;;14.25;4.85;;;;;;;7.44;76.44;101895.75;5114700;28;20034;-57
2023/04/26 08:19:35;;;;;;;9.32;3.65;;;;;;;7.71;75.10;101898.19;5114334;28;20030;-57
2023/04/26 08:22:00;;;;;;;11.68;3.50;;;;;;;7.77;74.56;101900.22;5113732;28;20357;-57
2023/04/26 08:24:25;;;;;;;9.20;3.80;;;;;;;7.72;77.26;101893.13;5114060;28;20104;-57
2023/04/26 08:26:51;;;;;;;11.30;3.65;;;;;;;7.72;75.00;101889.66;5114295;28;20026;-57
2023/04/26 08:29:17;;;;;;;12.77;4.03;;;;;;;7.62;75.52;101884.78;5113456;28;20344;-58
2023/04/26 08:31:42;;;;;;;12.07;3.65;;;;;;;7.74;71.59;101890.66;5114360;28;20107;-57
2023/04/26 08:34:10;;;;;;;10.90;3.47;;;;;;;7.86;69.75;101893.94;5114111;28;20118;-58
2023/04/26 08:36:36;;;;;;;10.73;3.03;;;;;;;8.20;70.50;101892.41;5113166;28;20376;-57
2023/04/26 08:39:01;;;;;;;11.95;3.60;;;;;;;8.58;68.52;101891.09;5114099;28;20043;-57
2023/04/26 08:41:27;;;;;;;9.73;3.53;;;;;;;8.69;66.54;101894.25;5113753;28;20050;-57
2023/04/26 08:43:54;;;;;;;11.48;3.80;;;;;;;8.41;64.25;101888.44;5113500;28;20092;-57
2023/04/26 08:46:21;;;;;;;11.20;3.30;;;;;;;8.27;63.72;101893.63;5113815;28;20111;-57
2023/04/26 08:48:59;;;;;;;10.52;3.58;;;;;;;8.20;67.46;101893.28;5114094;28;20015;-57
2023/04/26 08:51:26;;;;;;;8.30;3.10;;;;;;;8.05;67.43;101884.69;5112795;28;20032;-57
2023/04/26 08:53:53;;;;;;;9.18;3.30;;;;;;;7.93;68.92;101881.44;5113803;28;20019;-57
2023/04/26 08:56:21;;;;;;;13.95;3.90;;;;;;;8.15;70.55;101887.00;5113757;28;20024;-57
2023/04/26 08:58:47;;;;;;;12.20;3.65;;;;;;;8.18;69.31;101886.28;5113134;28;20032;-57
2023/04/26 09:01:14;;;;;;;11.10;3.05;;;;;;;8.12;64.20;101894.53;5113692;28;20034;-57
2023/04/26 09:03:40;;;;;;;10.48;3.17;;;;;;;7.97;65.17;101884.28;5112789;28;20024;-57
2023/04/26 09:06:06;;;;;;;8.07;3.13;;;;;;;7.88;65.42;101883.75;5113905;28;20031;-57
2023/04/26 09:08:35;;;;;;;10.80;3.35;;;;;;;8.32;69.58;101879.34;5113314;28;20122;-57
2023/04/26 09:11:02;;;;;;;9.70;3.92;;;;;;;8.17;68.88;101877.72;5112008;28;20060;-57
2023/04/26 09:13:29;;;;;;;10.07;3.58;;;;;;;8.40;70.41;101872.94;5113212;28;20489;-58
2023/04/26 09:15:54;;;;;;;7.30;3.53;;;;;;;8.39;65.36;101877.22;5113574;28;20451;-57
2023/04/26 09:18:21;;;;;;;11.68;3.78;;;;;;;8.31;64.92;101867.31;5112427;28;20031;-57
2023/04/26 09:21:07;;;;;;;13.20;3.50;;;;;;;8.27;65.59;101875.66;5113642;28;20035;-57
2023/04/26 09:23:32;;;;;;;10.77;3.63;;;;;;;8.37;65.73;101867.66;5113061;28;20016;-57
2023/04/26 09:26:17;;;;;;;11.70;3.75;;;;;;;8.68;68.12;101872.78;5112798;28;20038;-57
2023/04/26 09:28:43;;;;;;;9.68;3.85;;;;;;;8.82;68.40;101867.50;5113379;28;20080;-57
2023/04/26 09:31:08;;;;;;;13.07;6.05;;;;;;;8.89;61.83;101870.47;5113243;28;20106;-57
2023/04/26 09:33:34;;;;;;;9.10;4.22;;;;;;;9.03;60.40;101870.31;5112182;28;20032;-57
2023/04/26 09:36:12;;;;;;;10.82;3.70;;;;;;;9.18;61.07;101876.28;5113481;28;20058;-57
2023/04/26 09:38:41;;;;;;;11.75;8.07;;;;;;;9.17;60.44;101879.63;5113000;28;20099;-57
2023/04/26 09:41:06;;;;;;;9.85;3.95;;;;;;;9.06;58.01;101871.38;5112498;28;20031;-57
2023/04/26 09:43:36;;;;;;;8.93;3.55;;;;;;;9.67;57.62;101867.59;5112721;28;20053;-57
2023/04/26 09:46:02;;;;;;;9.30;3.60;;;;;;;10.14;57.83;101880.13;5112331;28;20028;-57
2023/04/26 09:48:33;;;;;;;8.63;3.53;;;;;;;10.17;55.93;101875.13;5113029;28;20371;-57
2023/04/26 09:51:10;;;;;;;10.38;3.60;;;;;;;10.00;56.97;101874.31;5113176;28;20087;-57
2023/04/26 09:53:46;;;;;;;8.70;3.07;;;;;;;9.31;55.52;101872.63;5112129;28;20429;-57
2023/04/26 09:56:13;;;;;;;11.90;3.47;;;;;;;8.63;57.23;101873.34;5113179;28;20023;-57
2023/04/26 09:59:04;;;;;;;10.30;3.22;;;;;;;8.60;60.68;101880.88;5112776;28;20016;-57
2023/04/26 10:01:30;;;;;;;13.15;3.70;;;;;;;8.24;59.45;101869.53;5111952;28;20440;-57
2023/04/26 10:03:56;;;;;;;9.80;3.47;;;;;;;8.08;62.15;101867.78;5112939;28;20073;-57
2023/04/26 10:06:22;;;;;;;9.02;3.60;;;;;;;7.93;64.05;101866.03;5112797;28;20080;-57
2023/04/26 10:08:47;;;;;;;8.65;3.20;;;;;;;7.83;59.76;101864.63;5112192;28;20016;-57
2023/04/26 10:11:13;;;;;;;12.05;3.88;;;;;;;7.72;59.94;101866.56;5112941;28;20456;-57
2023/04/26 10:13:40;;;;;;;11.50;3.40;;;;;;;7.64;60.41;101867.81;5112529;28;20027;-57
2023/04/26 10:16:06;;;;;;;7.90;3.10;;;;;;;7.67;60.21;101873.13;5112135;28;20024;-57
2023/04/26 10:18:32;;;;;;;9.63;3.35;;;;;;;7.69;63.66;101877.53;5112470;28;20394;-57
2023/04/26 10:21:02;;;;;;;10.77;3.58;;;;;;;7.58;61.12;101876.06;5113008;28;20020;-57
2023/04/26 10:23:28;;;;;;;13.23;3.85;;;;;;;7.82;63.21;101874.00;5116247;28;20039;-57
2023/04/26 10:25:54;;;;;;;9.18;3.65;;;;;;;8.08;64.80;101875.50;5116655;28;20024;-57
2023/04/26 10:28:45;;;;;;;8.07;3.70;;;;;;;8.20;62.70;101874.44;5115813;28;20048;-57
2023/04/26 10:31:11;;;;;;;8.80;3.92;;;;;;;8.41;63.51;101875.59;5116693;28;20027;-57
2023/04/26 10:33:36;;;;;;;8.70;4.07;;;;;;;8.55;60.68;101865.22;5116148;28;20034;-57
2023/04/26 10:36:11;;;;;;;9.18;4.03;;;;;;;8.82;60.63;101867.50;5115736;28;20058;-58
2023/04/26 10:38:38;;;;;;;10.65;3.38;;;;;;;9.08;58.88;101863.75;5116190;28;20501;-58
2023/04/26 10:41:26;;;;;;;8.93;3.70;;;;;;;9.16;62.15;101859.00;5116646;28;20042;-57
2023/04/26 10:43:52;;;;;;;9.73;4.18;;;;;;;9.07;56.55;101862.84;5115515;28;20539;-57
2023/04/26 10:46:39;;;;;;;12.65;4.00;;;;;;;9.49;61.32;101857.25;5116021;28;20024;-58
2023/04/26 10:49:18;;;;;;;6.85;3.55;;;;;;;9.60;57.15;101851.75;5116482;28;20027;-57
2023/04/26 10:52:10;;;;;;;10.82;3.78;;;;;;;9.86;58.05;101853.94;5116333;28;20066;-57
2023/04/26 10:54:45;;;;;;;7.38;3.80;;;;;;;10.23;53.48;101856.50;5116093;28;20027;-57
2023/04/26 10:57:11;;;;;;;12.23;4.40;;;;;;;9.92;52.26;101848.19;5115333;28;20027;-57
2023/04/26 10:59:36;;;;;;;9.25;3.70;;;;;;;10.61;51.31;101852.25;5115699;28;20069;-57
2023/04/26 11:02:01;;;;;;;12.60;3.88;;;;;;;10.76;51.23;101847.81;5116144;28;20023;-57
2023/04/26 11:04:50;;;;;;;9.70;3.50;;;;;;;11.10;51.03;101848.41;5114740;28;20134;-57
2023/04/26 11:07:36;;;;;;;13.40;4.15;;;;;;;11.58;52.19;101853.00;5115454;28;20483;-57
2023/04/26 11:10:02;;;;;;;8.90;3.95;;;;;;;11.19;47.49;101843.66;5115918;28;20031;-57